sensor_id;sensor_type;location;lat;lon;timestamp;P1;durP1;ratioP1;P2;durP2;ratioP2
44428;SDS011;30134;47.866;-4.222;2022-11-13T01:00:46;102.60;;;72.22;;
44428;SDS011;30134;47.866;-4.222;2022-11-13T01:03:13;105.03;;;73.18;;
44428;SDS011;30134;47.866;-4.222;2022-11-13T01:05:44;105.47;;;71.70;;
44428;SDS011;30134;47.866;-4.222;2022-11-13T01:08:12;103.88;;;71.25;;
44428;SDS011;30134;47.866;-4.222;2022-11-13T01:10:40;100.43;;;69.57;;
44428;SDS011;30134;47.866;-4.222;2022-11-13T01:13:10;100.93;;;71.10;;
44428;SDS011;30134;47.866;-4.222;2022-11-13T01:15:42;94.88;;;65.55;;
44428;SDS011;30134;47.866;-4.222;2022-11-13T01:18:09;93.68;;;67.45;;
44428;SDS011;30134;47.866;-4.222;2022-11-13T01:20:37;98.65;;;67.18;;
44428;SDS011;30134;47.866;-4.222;2022-11-13T01:23:03;97.32;;;64.97;;
44428;SDS011;30134;47.866;-4.222;2022-11-13T01:25:30;88.85;;;63.03;;
44428;SDS011;30134;47.866;-4.222;2022-11-13T01:27:56;92.55;;;62.38;;
44428;SDS011;30134;47.866;-4.222;2022-11-13T01:30:22;83.95;;;58.78;;
44428;SDS011;30134;47.866;-4.222;2022-11-13T01:32:48;85.80;;;59.72;;
44428;SDS011;30134;47.866;-4.222;2022-11-13T01:35:14;85.90;;;58.25;;
44428;SDS011;30134;47.866;-4.222;2022-11-13T01:37:43;81.60;;;56.90;;
44428;SDS011;30134;47.866;-4.222;2022-11-13T01:40:09;77.70;;;54.08;;
44428;SDS011;30134;47.866;-4.222;2022-11-13T01:42:37;77.95;;;53.85;;
44428;SDS011;30134;47.866;-4.222;2022-11-13T01:45:48;76.72;;;52.33;;
44428;SDS011;30134;47.866;-4.222;2022-11-13T01:48:27;72.50;;;50.50;;
44428;SDS011;30134;47.866;-4.222;2022-11-13T01:51:08;69.65;;;49.20;;
44428;SDS011;30134;47.866;-4.222;2022-11-13T01:53:44;67.93;;;48.17;;
44428;SDS011;30134;47.866;-4.222;2022-11-13T01:56:12;65.30;;;47.90;;
44428;SDS011;30134;47.866;-4.222;2022-11-13T01:58:39;70.25;;;48.33;;
44428;SDS011;30134;47.866;-4.222;2022-11-13T02:01:09;62.80;;;44.55;;
44428;SDS011;30134;47.866;-4.222;2022-11-13T02:03:35;63.08;;;44.85;;
44428;SDS011;30134;47.866;-4.222;2022-11-13T02:06:01;59.33;;;43.28;;
44428;SDS011;30134;47.866;-4.222;2022-11-13T02:08:30;61.00;;;41.97;;
44428;SDS011;30134;47.866;-4.222;2022-11-13T02:10:56;59.78;;;40.28;;
44428;SDS011;30134;47.866;-4.222;2022-11-13T02:13:22;56.50;;;40.22;;
44428;SDS011;30134;47.866;-4.222;2022-11-13T02:15:49;57.80;;;39.70;;
44428;SDS011;30134;47.866;-4.222;2022-11-13T02:18:16;53.95;;;38.08;;
44428;SDS011;30134;47.866;-4.222;2022-11-13T02:23:42;51.58;;;35.67;;
44428;SDS011;30134;47.866;-4.222;2022-11-13T02:26:35;49.58;;;35.17;;
44428;SDS011;30134;47.866;-4.222;2022-11-13T02:29:02;45.90;;;32.97;;
44428;SDS011;30134;47.866;-4.222;2022-11-13T02:31:28;46.28;;;32.85;;
44428;SDS011;30134;47.866;-4.222;2022-11-13T02:33:54;46.00;;;32.08;;
44428;SDS011;30134;47.866;-4.222;2022-11-13T02:36:20;43.45;;;31.70;;
44428;SDS011;30134;47.866;-4.222;2022-11-13T02:38:49;43.25;;;31.40;;
44428;SDS011;30134;47.866;-4.222;2022-11-13T02:41:17;43.58;;;30.25;;
44428;SDS011;30134;47.866;-4.222;2022-11-13T02:43:46;41.77;;;28.60;;
44428;SDS011;30134;47.866;-4.222;2022-11-13T02:46:12;66.40;;;43.40;;
44428;SDS011;30134;47.866;-4.222;2022-11-13T02:48:39;166.98;;;103.82;;
44428;SDS011;30134;47.866;-4.222;2022-11-13T02:51:07;166.80;;;110.38;;
44428;SDS011;30134;47.866;-4.222;2022-11-13T02:53:36;154.57;;;101.53;;
44428;SDS011;30134;47.866;-4.222;2022-11-13T02:56:02;132.70;;;86.80;;
44428;SDS011;30134;47.866;-4.222;2022-11-13T02:58:28;119.00;;;76.70;;
44428;SDS011;30134;47.866;-4.222;2022-11-13T03:00:59;112.68;;;73.95;;
44428;SDS011;30134;47.866;-4.222;2022-11-13T03:03:27;107.75;;;68.90;;
44428;SDS011;30134;47.866;-4.222;2022-11-13T03:05:54;102.82;;;66.38;;
44428;SDS011;30134;47.866;-4.222;2022-11-13T03:08:20;95.90;;;66.35;;
44428;SDS011;30134;47.866;-4.222;2022-11-13T03:10:49;95.50;;;63.65;;
44428;SDS011;30134;47.866;-4.222;2022-11-13T03:13:16;87.63;;;59.13;;
44428;SDS011;30134;47.866;-4.222;2022-11-13T03:15:43;85.65;;;57.20;;
44428;SDS011;30134;47.866;-4.222;2022-11-13T03:18:11;80.35;;;57.38;;
44428;SDS011;30134;47.866;-4.222;2022-11-13T03:20:39;78.05;;;52.65;;
44428;SDS011;30134;47.866;-4.222;2022-11-13T03:23:07;80.55;;;54.63;;
44428;SDS011;30134;47.866;-4.222;2022-11-13T03:25:33;78.45;;;50.55;;
44428;SDS011;30134;47.866;-4.222;2022-11-13T03:27:59;73.75;;;48.95;;
44428;SDS011;30134;47.866;-4.222;2022-11-13T03:30:26;71.50;;;49.13;;
44428;SDS011;30134;47.866;-4.222;2022-11-13T03:32:53;69.05;;;46.20;;
44428;SDS011;30134;47.866;-4.222;2022-11-13T03:35:20;69.88;;;47.22;;
44428;SDS011;30134;47.866;-4.222;2022-11-13T03:37:48;69.25;;;46.00;;
44428;SDS011;30134;47.866;-4.222;2022-11-13T03:40:15;65.65;;;44.20;;
44428;SDS011;30134;47.866;-4.222;2022-11-13T03:42:41;65.00;;;43.78;;
44428;SDS011;30134;47.866;-4.222;2022-11-13T03:45:07;59.10;;;40.63;;
44428;SDS011;30134;47.866;-4.222;2022-11-13T03:47:34;61.10;;;40.47;;
44428;SDS011;30134;47.866;-4.222;2022-11-13T03:50:01;59.85;;;39.47;;
44428;SDS011;30134;47.866;-4.222;2022-11-13T03:52:29;58.95;;;38.60;;
44428;SDS011;30134;47.866;-4.222;2022-11-13T03:54:55;55.35;;;37.22;;
44428;SDS011;30134;47.866;-4.222;2022-11-13T03:57:21;56.40;;;36.00;;
44428;SDS011;30134;47.866;-4.222;2022-11-13T03:59:47;58.58;;;36.10;;
44428;SDS011;30134;47.866;-4.222;2022-11-13T04:02:13;46.88;;;33.03;;
44428;SDS011;30134;47.866;-4.222;2022-11-13T04:04:38;51.40;;;33.92;;
44428;SDS011;30134;47.866;-4.222;2022-11-13T04:07:04;58.42;;;38.47;;
44428;SDS011;30134;47.866;-4.222;2022-11-13T04:09:30;68.85;;;43.20;;
44428;SDS011;30134;47.866;-4.222;2022-11-13T04:11:56;76.75;;;50.05;;
44428;SDS011;30134;47.866;-4.222;2022-11-13T04:14:22;85.72;;;56.15;;
44428;SDS011;30134;47.866;-4.222;2022-11-13T04:16:48;92.93;;;61.03;;
44428;SDS011;30134;47.866;-4.222;2022-11-13T04:19:14;94.07;;;61.45;;
44428;SDS011;30134;47.866;-4.222;2022-11-13T04:21:39;98.32;;;63.88;;
44428;SDS011;30134;47.866;-4.222;2022-11-13T04:24:07;93.10;;;61.40;;
44428;SDS011;30134;47.866;-4.222;2022-11-13T04:26:33;94.60;;;60.85;;
44428;SDS011;30134;47.866;-4.222;2022-11-13T04:28:59;91.15;;;60.22;;
44428;SDS011;30134;47.866;-4.222;2022-11-13T04:31:25;86.30;;;57.83;;
44428;SDS011;30134;47.866;-4.222;2022-11-13T04:33:51;85.15;;;55.53;;
44428;SDS011;30134;47.866;-4.222;2022-11-13T04:36:17;82.93;;;55.05;;
44428;SDS011;30134;47.866;-4.222;2022-11-13T04:38:43;80.35;;;52.63;;
44428;SDS011;30134;47.866;-4.222;2022-11-13T04:41:10;73.68;;;50.13;;
44428;SDS011;30134;47.866;-4.222;2022-11-13T04:43:56;73.93;;;47.53;;
44428;SDS011;30134;47.866;-4.222;2022-11-13T04:46:22;63.55;;;43.85;;
44428;SDS011;30134;47.866;-4.222;2022-11-13T04:48:48;64.90;;;43.15;;
44428;SDS011;30134;47.866;-4.222;2022-11-13T04:51:14;62.42;;;40.67;;
44428;SDS011;30134;47.866;-4.222;2022-11-13T04:53:40;59.75;;;39.47;;
44428;SDS011;30134;47.866;-4.222;2022-11-13T04:56:06;53.75;;;36.30;;
44428;SDS011;30134;47.866;-4.222;2022-11-13T04:58:32;53.72;;;35.10;;
44428;SDS011;30134;47.866;-4.222;2022-11-13T05:00:58;46.90;;;33.25;;
44428;SDS011;30134;47.866;-4.222;2022-11-13T12:28:43;50.22;;;35.72;;
44428;SDS011;30134;47.866;-4.222;2022-11-13T12:35:06;49.20;;;34.67;;
44428;SDS011;30134;47.866;-4.222;2022-11-13T12:37:17;43.25;;;31.02;;
44428;SDS011;30134;47.866;-4.222;2022-11-13T12:40:06;43.45;;;30.77;;
44428;SDS011;30134;47.866;-4.222;2022-11-13T12:42:54;44.30;;;30.52;;
44428;SDS011;30134;47.866;-4.222;2022-11-13T12:50:43;38.25;;;25.98;;
44428;SDS011;30134;47.866;-4.222;2022-11-13T12:53:26;38.13;;;24.77;;
44428;SDS011;30134;47.866;-4.222;2022-11-13T12:55:57;31.52;;;22.98;;
44428;SDS011;30134;47.866;-4.222;2022-11-13T12:58:26;31.80;;;21.85;;
44428;SDS011;30134;47.866;-4.222;2022-11-13T13:00:59;29.60;;;20.33;;
44428;SDS011;30134;47.866;-4.222;2022-11-13T13:06:55;24.23;;;18.25;;
44428;SDS011;30134;47.866;-4.222;2022-11-13T13:17:27;22.20;;;13.40;;
44428;SDS011;30134;47.866;-4.222;2022-11-13T13:19:57;19.70;;;11.70;;
44428;SDS011;30134;47.866;-4.222;2022-11-13T13:22:57;21.38;;;12.20;;
44428;SDS011;30134;47.866;-4.222;2022-11-13T13:25:34;19.17;;;11.80;;
44428;SDS011;30134;47.866;-4.222;2022-11-13T13:38:56;18.05;;;11.00;;
44428;SDS011;30134;47.866;-4.222;2022-11-13T13:45:01;18.75;;;10.80;;
44428;SDS011;30134;47.866;-4.222;2022-11-13T13:47:50;16.00;;;9.90;;
44428;SDS011;30134;47.866;-4.222;2022-11-13T13:50:23;16.00;;;9.38;;
44428;SDS011;30134;47.866;-4.222;2022-11-13T13:52:54;18.25;;;9.90;;
44428;SDS011;30134;47.866;-4.222;2022-11-13T13:58:01;17.85;;;9.07;;
44428;SDS011;30134;47.866;-4.222;2022-11-13T14:00:36;12.73;;;8.20;;
44428;SDS011;30134;47.866;-4.222;2022-11-13T14:03:03;13.20;;;8.30;;
44428;SDS011;30134;47.866;-4.222;2022-11-13T14:05:40;13.45;;;7.82;;
44428;SDS011;30134;47.866;-4.222;2022-11-13T14:08:15;15.15;;;8.35;;
44428;SDS011;30134;47.866;-4.222;2022-11-13T14:10:49;13.88;;;7.90;;
44428;SDS011;30134;47.866;-4.222;2022-11-13T14:13:24;12.40;;;6.90;;
44428;SDS011;30134;47.866;-4.222;2022-11-13T14:15:59;13.23;;;7.40;;
44428;SDS011;30134;47.866;-4.222;2022-11-13T14:18:28;12.75;;;7.05;;
44428;SDS011;30134;47.866;-4.222;2022-11-13T14:20:57;9.73;;;6.30;;
44428;SDS011;30134;47.866;-4.222;2022-11-13T14:26:02;10.13;;;5.95;;
44428;SDS011;30134;47.866;-4.222;2022-11-13T14:28:30;10.07;;;5.63;;
44428;SDS011;30134;47.866;-4.222;2022-11-13T14:31:07;10.23;;;5.43;;
44428;SDS011;30134;47.866;-4.222;2022-11-13T14:33:39;8.20;;;5.10;;
44428;SDS011;30134;47.866;-4.222;2022-11-13T14:36:11;8.52;;;4.72;;
44428;SDS011;30134;47.866;-4.222;2022-11-13T14:38:44;8.90;;;5.28;;
44428;SDS011;30134;47.866;-4.222;2022-11-13T14:44:01;9.18;;;4.95;;
44428;SDS011;30134;47.866;-4.222;2022-11-13T14:49:02;8.02;;;4.45;;
44428;SDS011;30134;47.866;-4.222;2022-11-13T14:51:38;8.63;;;4.47;;
44428;SDS011;30134;47.866;-4.222;2022-11-13T14:54:05;10.38;;;5.32;;
44428;SDS011;30134;47.866;-4.222;2022-11-13T14:56:51;10.85;;;7.30;;
44428;SDS011;30134;47.866;-4.222;2022-11-13T14:59:23;14.15;;;9.60;;
44428;SDS011;30134;47.866;-4.222;2022-11-13T15:01:55;18.42;;;12.55;;
44428;SDS011;30134;47.866;-4.222;2022-11-13T15:04:22;23.92;;;16.77;;
44428;SDS011;30134;47.866;-4.222;2022-11-13T15:06:49;31.55;;;20.80;;
44428;SDS011;30134;47.866;-4.222;2022-11-13T15:09:19;34.03;;;24.55;;
44428;SDS011;30134;47.866;-4.222;2022-11-13T15:11:48;39.83;;;28.10;;
44428;SDS011;30134;47.866;-4.222;2022-11-13T15:14:15;43.55;;;30.80;;
44428;SDS011;30134;47.866;-4.222;2022-11-13T15:16:44;46.92;;;33.95;;
44428;SDS011;30134;47.866;-4.222;2022-11-13T15:19:30;51.67;;;36.50;;
44428;SDS011;30134;47.866;-4.222;2022-11-13T15:21:59;57.17;;;41.45;;
44428;SDS011;30134;47.866;-4.222;2022-11-13T15:24:25;57.72;;;42.33;;
44428;SDS011;30134;47.866;-4.222;2022-11-13T15:26:52;63.50;;;45.92;;
44428;SDS011;30134;47.866;-4.222;2022-11-13T15:29:18;65.00;;;47.17;;
44428;SDS011;30134;47.866;-4.222;2022-11-13T15:31:45;65.63;;;47.75;;
44428;SDS011;30134;47.866;-4.222;2022-11-13T15:34:12;67.93;;;49.22;;
44428;SDS011;30134;47.866;-4.222;2022-11-13T15:36:39;72.15;;;50.80;;
44428;SDS011;30134;47.866;-4.222;2022-11-13T15:39:07;68.18;;;49.40;;
44428;SDS011;30134;47.866;-4.222;2022-11-13T15:41:34;71.68;;;52.95;;
44428;SDS011;30134;47.866;-4.222;2022-11-13T15:44:01;72.50;;;52.35;;
44428;SDS011;30134;47.866;-4.222;2022-11-13T15:46:36;73.50;;;54.63;;
44428;SDS011;30134;47.866;-4.222;2022-11-13T15:49:02;76.25;;;55.47;;
44428;SDS011;30134;47.866;-4.222;2022-11-13T15:51:44;72.70;;;53.45;;
44428;SDS011;30134;47.866;-4.222;2022-11-13T15:57:07;74.95;;;53.50;;
44428;SDS011;30134;47.866;-4.222;2022-11-13T15:59:55;72.40;;;53.38;;
44428;SDS011;30134;47.866;-4.222;2022-11-13T16:02:21;75.97;;;55.95;;
44428;SDS011;30134;47.866;-4.222;2022-11-13T16:04:47;72.57;;;54.55;;
44428;SDS011;30134;47.866;-4.222;2022-11-13T16:07:14;76.00;;;55.85;;
44428;SDS011;30134;47.866;-4.222;2022-11-13T16:09:51;69.40;;;52.20;;
44428;SDS011;30134;47.866;-4.222;2022-11-13T16:12:17;73.47;;;52.65;;
44428;SDS011;30134;47.866;-4.222;2022-11-13T16:14:43;74.05;;;54.67;;
44428;SDS011;30134;47.866;-4.222;2022-11-13T16:17:10;72.93;;;52.00;;
44428;SDS011;30134;47.866;-4.222;2022-11-13T16:19:44;68.35;;;49.80;;
44428;SDS011;30134;47.866;-4.222;2022-11-13T16:22:17;70.97;;;51.58;;
44428;SDS011;30134;47.866;-4.222;2022-11-13T16:24:48;69.72;;;50.35;;
44428;SDS011;30134;47.866;-4.222;2022-11-13T16:27:17;71.35;;;49.92;;
44428;SDS011;30134;47.866;-4.222;2022-11-13T16:29:54;64.82;;;48.53;;
44428;SDS011;30134;47.866;-4.222;2022-11-13T16:32:20;66.10;;;48.30;;
44428;SDS011;30134;47.866;-4.222;2022-11-13T16:34:46;63.45;;;48.05;;
44428;SDS011;30134;47.866;-4.222;2022-11-13T16:37:14;60.55;;;43.88;;
44428;SDS011;30134;47.866;-4.222;2022-11-13T16:39:42;60.17;;;44.88;;
44428;SDS011;30134;47.866;-4.222;2022-11-13T16:42:09;61.28;;;45.17;;
44428;SDS011;30134;47.866;-4.222;2022-11-13T16:44:37;57.33;;;43.03;;
44428;SDS011;30134;47.866;-4.222;2022-11-13T16:47:14;56.13;;;42.92;;
44428;SDS011;30134;47.866;-4.222;2022-11-13T16:49:45;53.67;;;41.03;;
44428;SDS011;30134;47.866;-4.222;2022-11-13T16:52:11;54.67;;;40.45;;
44428;SDS011;30134;47.866;-4.222;2022-11-13T16:54:38;56.28;;;40.15;;
44428;SDS011;30134;47.866;-4.222;2022-11-13T16:57:03;53.15;;;39.50;;
44428;SDS011;30134;47.866;-4.222;2022-11-13T16:59:29;51.00;;;37.47;;
44428;SDS011;30134;47.866;-4.222;2022-11-13T17:01:57;51.00;;;38.08;;
44428;SDS011;30134;47.866;-4.222;2022-11-13T17:04:26;49.78;;;36.03;;
44428;SDS011;30134;47.866;-4.222;2022-11-13T17:06:52;47.28;;;35.75;;
44428;SDS011;30134;47.866;-4.222;2022-11-13T17:09:18;46.78;;;34.40;;
44428;SDS011;30134;47.866;-4.222;2022-11-13T17:11:43;45.75;;;34.63;;
44428;SDS011;30134;47.866;-4.222;2022-11-13T17:14:09;44.50;;;32.97;;
44428;SDS011;30134;47.866;-4.222;2022-11-13T17:16:36;44.72;;;33.53;;
44428;SDS011;30134;47.866;-4.222;2022-11-13T17:19:02;43.05;;;32.72;;
44428;SDS011;30134;47.866;-4.222;2022-11-13T17:21:29;44.38;;;32.85;;
44428;SDS011;30134;47.866;-4.222;2022-11-13T17:26:28;42.10;;;30.58;;
44428;SDS011;30134;47.866;-4.222;2022-11-13T17:28:55;38.65;;;28.50;;
44428;SDS011;30134;47.866;-4.222;2022-11-13T17:31:26;38.08;;;29.10;;
44428;SDS011;30134;47.866;-4.222;2022-11-13T17:33:52;37.60;;;28.15;;
44428;SDS011;30134;47.866;-4.222;2022-11-13T17:36:19;36.20;;;27.05;;
44428;SDS011;30134;47.866;-4.222;2022-11-13T17:38:46;36.58;;;26.67;;
44428;SDS011;30134;47.866;-4.222;2022-11-13T17:41:13;33.95;;;25.92;;
44428;SDS011;30134;47.866;-4.222;2022-11-13T17:43:40;38.83;;;26.67;;
44428;SDS011;30134;47.866;-4.222;2022-11-13T17:46:11;45.22;;;31.08;;
44428;SDS011;30134;47.866;-4.222;2022-11-13T17:48:39;55.13;;;40.55;;
44428;SDS011;30134;47.866;-4.222;2022-11-13T17:51:07;67.47;;;48.85;;
44428;SDS011;30134;47.866;-4.222;2022-11-13T17:53:37;78.28;;;54.55;;
44428;SDS011;30134;47.866;-4.222;2022-11-13T17:56:03;92.25;;;63.40;;
44428;SDS011;30134;47.866;-4.222;2022-11-13T17:58:39;90.32;;;65.85;;
44428;SDS011;30134;47.866;-4.222;2022-11-13T18:01:11;97.60;;;70.32;;
44428;SDS011;30134;47.866;-4.222;2022-11-13T18:03:40;107.32;;;75.07;;
44428;SDS011;30134;47.866;-4.222;2022-11-13T18:06:10;104.25;;;75.70;;
44428;SDS011;30134;47.866;-4.222;2022-11-13T18:08:39;107.38;;;78.35;;
44428;SDS011;30134;47.866;-4.222;2022-11-13T18:11:17;110.65;;;79.40;;
44428;SDS011;30134;47.866;-4.222;2022-11-13T18:13:49;118.32;;;81.35;;
44428;SDS011;30134;47.866;-4.222;2022-11-13T18:16:20;110.80;;;81.38;;
44428;SDS011;30134;47.866;-4.222;2022-11-13T18:18:56;112.40;;;81.00;;
44428;SDS011;30134;47.866;-4.222;2022-11-13T18:21:25;115.30;;;82.03;;
44428;SDS011;30134;47.866;-4.222;2022-11-13T18:26:28;109.95;;;77.80;;
44428;SDS011;30134;47.866;-4.222;2022-11-13T18:28:56;108.53;;;75.45;;
44428;SDS011;30134;47.866;-4.222;2022-11-13T18:31:23;102.10;;;72.97;;
44428;SDS011;30134;47.866;-4.222;2022-11-13T18:33:49;98.85;;;71.10;;
44428;SDS011;30134;47.866;-4.222;2022-11-13T18:36:15;103.10;;;72.45;;
44428;SDS011;30134;47.866;-4.222;2022-11-13T18:38:45;106.47;;;75.65;;
44428;SDS011;30134;47.866;-4.222;2022-11-13T18:41:12;111.20;;;78.20;;
44428;SDS011;30134;47.866;-4.222;2022-11-13T18:43:44;110.68;;;76.72;;
44428;SDS011;30134;47.866;-4.222;2022-11-13T18:46:13;108.72;;;78.32;;
44428;SDS011;30134;47.866;-4.222;2022-11-13T18:48:42;109.53;;;79.85;;
44428;SDS011;30134;47.866;-4.222;2022-11-13T18:51:11;115.57;;;81.45;;
44428;SDS011;30134;47.866;-4.222;2022-11-13T18:53:40;109.90;;;78.70;;
44428;SDS011;30134;47.866;-4.222;2022-11-13T18:56:11;108.25;;;76.03;;
44428;SDS011;30134;47.866;-4.222;2022-11-13T18:58:43;102.35;;;75.13;;
44428;SDS011;30134;47.866;-4.222;2022-11-13T19:01:15;104.28;;;74.90;;
44428;SDS011;30134;47.866;-4.222;2022-11-13T19:03:57;98.53;;;69.88;;
44428;SDS011;30134;47.866;-4.222;2022-11-13T19:06:26;90.82;;;66.85;;
44428;SDS011;30134;47.866;-4.222;2022-11-13T19:08:58;90.75;;;65.28;;
44428;SDS011;30134;47.866;-4.222;2022-11-13T19:11:28;90.43;;;63.67;;
44428;SDS011;30134;47.866;-4.222;2022-11-13T19:13:59;82.57;;;60.93;;
44428;SDS011;30134;47.866;-4.222;2022-11-13T19:16:27;80.85;;;57.20;;
44428;SDS011;30134;47.866;-4.222;2022-11-13T19:19:01;79.40;;;55.28;;
44428;SDS011;30134;47.866;-4.222;2022-11-13T19:21:34;73.95;;;52.85;;
44428;SDS011;30134;47.866;-4.222;2022-11-13T19:24:00;72.13;;;49.90;;
44428;SDS011;30134;47.866;-4.222;2022-11-13T19:26:27;66.60;;;48.80;;
44428;SDS011;30134;47.866;-4.222;2022-11-13T19:28:54;63.70;;;46.42;;
44428;SDS011;30134;47.866;-4.222;2022-11-13T19:31:21;59.88;;;44.47;;
44428;SDS011;30134;47.866;-4.222;2022-11-13T19:33:54;58.85;;;42.47;;
44428;SDS011;30134;47.866;-4.222;2022-11-13T19:36:26;55.83;;;40.70;;
44428;SDS011;30134;47.866;-4.222;2022-11-13T19:38:56;52.07;;;38.10;;
44428;SDS011;30134;47.866;-4.222;2022-11-13T19:41:23;52.00;;;35.53;;
44428;SDS011;30134;47.866;-4.222;2022-11-13T19:43:50;45.72;;;33.47;;
44428;SDS011;30134;47.866;-4.222;2022-11-13T19:46:17;42.42;;;30.75;;
44428;SDS011;30134;47.866;-4.222;2022-11-13T19:48:45;41.58;;;29.15;;
44428;SDS011;30134;47.866;-4.222;2022-11-13T19:51:13;38.85;;;27.30;;
44428;SDS011;30134;47.866;-4.222;2022-11-13T19:53:42;36.00;;;26.33;;
44428;SDS011;30134;47.866;-4.222;2022-11-13T19:56:15;34.08;;;24.55;;
44428;SDS011;30134;47.866;-4.222;2022-11-13T19:58:45;28.48;;;21.85;;
44428;SDS011;30134;47.866;-4.222;2022-11-13T20:01:14;31.23;;;20.25;;
44428;SDS011;30134;47.866;-4.222;2022-11-13T20:03:45;27.23;;;19.20;;
44428;SDS011;30134;47.866;-4.222;2022-11-13T20:06:12;26.67;;;19.08;;
44428;SDS011;30134;47.866;-4.222;2022-11-13T20:08:41;27.23;;;19.30;;
44428;SDS011;30134;47.866;-4.222;2022-11-13T20:11:10;32.25;;;21.15;;
44428;SDS011;30134;47.866;-4.222;2022-11-13T20:13:39;40.30;;;27.40;;
44428;SDS011;30134;47.866;-4.222;2022-11-13T20:16:06;51.08;;;34.95;;
44428;SDS011;30134;47.866;-4.222;2022-11-13T20:18:37;65.85;;;44.45;;
44428;SDS011;30134;47.866;-4.222;2022-11-13T20:21:04;79.72;;;51.97;;
44428;SDS011;30134;47.866;-4.222;2022-11-13T20:23:34;80.03;;;54.70;;
44428;SDS011;30134;47.866;-4.222;2022-11-13T20:26:01;83.75;;;57.72;;
44428;SDS011;30134;47.866;-4.222;2022-11-13T20:28:30;87.35;;;60.15;;
44428;SDS011;30134;47.866;-4.222;2022-11-13T20:31:06;91.15;;;63.15;;
44428;SDS011;30134;47.866;-4.222;2022-11-13T20:33:47;99.88;;;66.32;;
44428;SDS011;30134;47.866;-4.222;2022-11-13T20:36:15;89.32;;;61.95;;
44428;SDS011;30134;47.866;-4.222;2022-11-13T20:38:42;95.55;;;64.32;;
44428;SDS011;30134;47.866;-4.222;2022-11-13T20:41:14;91.50;;;63.08;;
44428;SDS011;30134;47.866;-4.222;2022-11-13T20:43:40;90.13;;;61.85;;
44428;SDS011;30134;47.866;-4.222;2022-11-13T20:46:10;87.10;;;59.88;;
44428;SDS011;30134;47.866;-4.222;2022-11-13T20:48:38;88.05;;;58.58;;
44428;SDS011;30134;47.866;-4.222;2022-11-13T20:51:08;81.80;;;55.33;;
44428;SDS011;30134;47.866;-4.222;2022-11-13T20:53:48;77.57;;;54.40;;
44428;SDS011;30134;47.866;-4.222;2022-11-13T20:56:15;81.72;;;54.03;;
44428;SDS011;30134;47.866;-4.222;2022-11-13T20:58:43;71.63;;;50.85;;
44428;SDS011;30134;47.866;-4.222;2022-11-13T21:01:17;68.53;;;47.83;;
44428;SDS011;30134;47.866;-4.222;2022-11-13T21:03:49;66.60;;;46.17;;
44428;SDS011;30134;47.866;-4.222;2022-11-13T21:06:17;66.70;;;43.72;;
44428;SDS011;30134;47.866;-4.222;2022-11-13T21:08:45;58.22;;;40.85;;
44428;SDS011;30134;47.866;-4.222;2022-11-13T21:11:16;58.83;;;39.97;;
44428;SDS011;30134;47.866;-4.222;2022-11-13T21:13:46;52.65;;;38.03;;
44428;SDS011;30134;47.866;-4.222;2022-11-13T21:16:13;50.53;;;35.65;;
44428;SDS011;30134;47.866;-4.222;2022-11-13T21:18:41;47.10;;;33.55;;
44428;SDS011;30134;47.866;-4.222;2022-11-13T21:21:12;47.00;;;31.85;;
44428;SDS011;30134;47.866;-4.222;2022-11-13T21:23:42;44.05;;;30.30;;
44428;SDS011;30134;47.866;-4.222;2022-11-13T21:26:09;41.08;;;28.33;;
44428;SDS011;30134;47.866;-4.222;2022-11-13T21:28:35;37.13;;;27.65;;
44428;SDS011;30134;47.866;-4.222;2022-11-13T21:31:02;37.70;;;25.45;;
44428;SDS011;30134;47.866;-4.222;2022-11-13T21:33:48;33.92;;;23.75;;
44428;SDS011;30134;47.866;-4.222;2022-11-13T21:36:18;32.55;;;22.77;;
44428;SDS011;30134;47.866;-4.222;2022-11-13T21:38:50;32.55;;;22.55;;
44428;SDS011;30134;47.866;-4.222;2022-11-13T21:41:18;30.50;;;20.90;;
44428;SDS011;30134;47.866;-4.222;2022-11-13T21:46:32;27.65;;;17.20;;
44428;SDS011;30134;47.866;-4.222;2022-11-13T21:49:02;22.42;;;15.98;;
44428;SDS011;30134;47.866;-4.222;2022-11-13T21:51:31;295.27;;;184.93;;
44428;SDS011;30134;47.866;-4.222;2022-11-13T21:54:00;317.55;;;199.75;;
44428;SDS011;30134;47.866;-4.222;2022-11-13T21:56:27;307.85;;;191.10;;
44428;SDS011;30134;47.866;-4.222;2022-11-13T21:58:55;279.95;;;171.15;;
44428;SDS011;30134;47.866;-4.222;2022-11-13T22:01:22;270.65;;;165.75;;
44428;SDS011;30134;47.866;-4.222;2022-11-13T22:03:49;264.92;;;162.73;;
44428;SDS011;30134;47.866;-4.222;2022-11-13T22:06:17;263.23;;;159.02;;
44428;SDS011;30134;47.866;-4.222;2022-11-13T22:09:06;255.93;;;150.88;;
44428;SDS011;30134;47.866;-4.222;2022-11-13T22:11:48;245.82;;;148.55;;
44428;SDS011;30134;47.866;-4.222;2022-11-13T22:14:14;258.77;;;152.15;;
44428;SDS011;30134;47.866;-4.222;2022-11-13T22:16:41;232.70;;;137.00;;
44428;SDS011;30134;47.866;-4.222;2022-11-13T22:19:10;231.23;;;139.13;;
44428;SDS011;30134;47.866;-4.222;2022-11-13T22:21:42;229.48;;;135.65;;
44428;SDS011;30134;47.866;-4.222;2022-11-13T22:24:10;218.38;;;126.68;;
44428;SDS011;30134;47.866;-4.222;2022-11-13T22:26:42;216.07;;;130.02;;
44428;SDS011;30134;47.866;-4.222;2022-11-13T22:29:09;212.70;;;126.72;;
44428;SDS011;30134;47.866;-4.222;2022-11-13T22:31:36;202.20;;;120.05;;
44428;SDS011;30134;47.866;-4.222;2022-11-13T22:34:02;203.48;;;122.25;;
44428;SDS011;30134;47.866;-4.222;2022-11-13T22:36:32;196.02;;;117.22;;
44428;SDS011;30134;47.866;-4.222;2022-11-13T22:39:02;196.88;;;120.10;;
44428;SDS011;30134;47.866;-4.222;2022-11-13T22:41:30;189.73;;;113.78;;
44428;SDS011;30134;47.866;-4.222;2022-11-13T22:44:02;183.13;;;112.43;;
44428;SDS011;30134;47.866;-4.222;2022-11-13T22:46:36;174.15;;;105.82;;
44428;SDS011;30134;47.866;-4.222;2022-11-13T22:49:03;178.85;;;108.22;;
44428;SDS011;30134;47.866;-4.222;2022-11-13T22:51:31;172.93;;;104.20;;
44428;SDS011;30134;47.866;-4.222;2022-11-13T22:54:04;166.60;;;100.90;;
44428;SDS011;30134;47.866;-4.222;2022-11-13T22:56:33;164.82;;;100.18;;
44428;SDS011;30134;47.866;-4.222;2022-11-13T22:59:01;162.25;;;97.75;;
44428;SDS011;30134;47.866;-4.222;2022-11-13T23:01:30;156.57;;;96.20;;
44428;SDS011;30134;47.866;-4.222;2022-11-13T23:04:00;155.88;;;94.88;;
44428;SDS011;30134;47.866;-4.222;2022-11-13T23:06:30;150.30;;;89.68;;
44428;SDS011;30134;47.866;-4.222;2022-11-13T23:08:58;152.43;;;88.88;;
44428;SDS011;30134;47.866;-4.222;2022-11-13T23:11:35;138.43;;;82.10;;
44428;SDS011;30134;47.866;-4.222;2022-11-13T23:14:05;136.77;;;81.53;;
44428;SDS011;30134;47.866;-4.222;2022-11-13T23:16:35;133.18;;;82.55;;
44428;SDS011;30134;47.866;-4.222;2022-11-13T23:19:01;131.45;;;80.53;;
44428;SDS011;30134;47.866;-4.222;2022-11-13T23:21:28;127.40;;;77.90;;
44428;SDS011;30134;47.866;-4.222;2022-11-13T23:23:55;128.57;;;76.90;;
44428;SDS011;30134;47.866;-4.222;2022-11-13T23:26:22;123.10;;;75.97;;
44428;SDS011;30134;47.866;-4.222;2022-11-13T23:28:49;118.80;;;73.82;;
44428;SDS011;30134;47.866;-4.222;2022-11-13T23:31:15;117.07;;;70.60;;
44428;SDS011;30134;47.866;-4.222;2022-11-13T23:33:41;115.82;;;67.65;;
44428;SDS011;30134;47.866;-4.222;2022-11-13T23:36:08;121.90;;;70.63;;
44428;SDS011;30134;47.866;-4.222;2022-11-13T23:38:36;107.75;;;65.18;;
44428;SDS011;30134;47.866;-4.222;2022-11-13T23:41:02;110.68;;;66.88;;
44428;SDS011;30134;47.866;-4.222;2022-11-13T23:43:28;104.70;;;63.05;;